Time;durP1;ratioP1;P1;durP2;ratioP2;P2;SDS_P1;SDS_P2;PMS_P1;PMS_P2;Temp;Humidity;BMP_temperature;BMP_pressure;BME280_temperature;BME280_humidity;BME280_pressure;Samples;Min_cycle;Max_cycle;Signal;HPM_P1;HPM_P2
2022/04/17 00:00:39;;;;;;;1.55;0.65;;;;;;;;;;5007750;28;20041;-81
2022/04/17 00:03:06;;;;;;;2.53;0.90;;;;;;;;;;5009001;28;20040;-80
2022/04/17 00:05:32;;;;;;;1.40;0.73;;;;;;;;;;5011576;28;20123;-80
2022/04/17 00:07:58;;;;;;;2.05;0.90;;;;;;;;;;5011455;28;20510;-81
2022/04/17 00:10:23;;;;;;;2.60;1.38;;;;;;;;;;4994828;28;20046;-80
2022/04/17 00:12:49;;;;;;;2.72;1.10;;;;;;;;;;5011510;28;20061;-80
2022/04/17 00:15:14;;;;;;;1.90;0.70;;;;;;;;;;5010851;28;20034;-80
2022/04/17 00:17:42;;;;;;;1.73;1.08;;;;;;;;;;5011163;28;20046;-80
2022/04/17 00:20:11;;;;;;;1.42;0.73;;;;;;;;;;4995496;28;20038;-80
2022/04/17 00:22:37;;;;;;;1.92;0.80;;;;;;;;;;5011256;28;20507;-80
2022/04/17 00:25:02;;;;;;;2.15;0.90;;;;;;;;;;5010896;28;20034;-81
2022/04/17 00:27:28;;;;;;;1.17;0.60;;;;;;;;;;4994851;28;20488;-80
2022/04/17 00:29:53;;;;;;;1.70;0.80;;;;;;;;;;4994346;28;20499;-80
2022/04/17 00:32:18;;;;;;;1.98;0.70;;;;;;;;;;4994443;28;20051;-80
2022/04/17 00:34:45;;;;;;;1.20;0.68;;;;;;;;;;5010284;28;20047;-80
2022/04/17 00:37:10;;;;;;;1.90;0.95;;;;;;;;;;5027561;28;20615;-80
2022/04/17 00:39:36;;;;;;;1.95;0.70;;;;;;;;;;5007791;28;20121;-80
2022/04/17 00:42:04;;;;;;;1.63;0.77;;;;;;;;;;5007846;28;20548;-80
2022/04/17 00:44:30;;;;;;;1.73;0.60;;;;;;;;;;4991024;28;20038;-80
2022/04/17 00:46:55;;;;;;;1.90;0.70;;;;;;;;;;5007346;28;20046;-81
2022/04/17 00:49:21;;;;;;;1.67;0.60;;;;;;;;;;4991011;28;20046;-80
2022/04/17 00:51:47;;;;;;;2.50;1.23;;;;;;;;;;4991360;28;20497;-80
2022/04/17 00:54:13;;;;;;;2.13;0.70;;;;;;;;;;5007218;28;20393;-80
2022/04/17 00:56:38;;;;;;;2.55;0.90;;;;;;;;;;4991073;28;20034;-80
2022/04/17 00:59:09;;;;;;;1.90;1.00;;;;;;;;;;5007238;28;20571;-81
2022/04/17 01:01:36;;;;;;;1.52;0.88;;;;;;;;;;5011933;28;20117;-80
2022/04/17 01:04:01;;;;;;;1.80;0.70;;;;;;;;;;5010506;28;20122;-80
2022/04/17 01:06:27;;;;;;;1.45;0.70;;;;;;;;;;5027356;28;20061;-80
2022/04/17 01:08:52;;;;;;;2.25;0.60;;;;;;;;;;4993873;28;20046;-80
2022/04/17 01:11:18;;;;;;;2.22;1.13;;;;;;;;;;5010564;28;20038;-80
2022/04/17 01:13:43;;;;;;;1.23;0.52;;;;;;;;;;5010417;28;20030;-80
2022/04/17 01:16:09;;;;;;;2.08;0.70;;;;;;;;;;4994453;28;20038;-80
2022/04/17 01:19:02;;;;;;;1.92;0.82;;;;;;;;;;5010260;28;20397;-80
2022/04/17 01:21:28;;;;;;;2.83;0.80;;;;;;;;;;5010577;28;20038;-80
2022/04/17 01:26:56;;;;;;;2.20;0.80;;;;;;;;;;5028989;28;20033;-81
2022/04/17 01:29:38;;;;;;;1.42;0.70;;;;;;;;;;4982692;28;20029;-80
2022/04/17 01:32:05;;;;;;;4.88;1.77;;;;;;;;;;5010005;28;20048;-81
2022/04/17 01:34:31;;;;;;;2.05;0.80;;;;;;;;;;5010538;28;20038;-80
2022/04/17 01:36:56;;;;;;;1.23;0.65;;;;;;;;;;5026908;28;20087;-80
2022/04/17 01:39:22;;;;;;;1.45;0.70;;;;;;;;;;4993741;28;20056;-80
2022/04/17 01:41:49;;;;;;;1.75;0.60;;;;;;;;;;5010368;28;20038;-80
2022/04/17 01:44:16;;;;;;;2.20;0.70;;;;;;;;;;4977940;28;20133;-80
2022/04/17 01:46:41;;;;;;;2.10;0.73;;;;;;;;;;4977413;28;20042;-80
2022/04/17 01:49:07;;;;;;;2.17;0.93;;;;;;;;;;4997280;28;20515;-81
2022/04/17 01:51:37;;;;;;;2.67;1.45;;;;;;;;;;4981453;28;20056;-80
2022/04/17 01:54:03;;;;;;;2.05;0.80;;;;;;;;;;5013807;28;20562;-81
2022/04/17 01:56:28;;;;;;;1.83;0.70;;;;;;;;;;4997278;28;20045;-81
2022/04/17 01:58:54;;;;;;;1.55;1.08;;;;;;;;;;4997590;28;20076;-81
2022/04/17 02:01:19;;;;;;;1.88;0.80;;;;;;;;;;5013416;28;20076;-80
2022/04/17 02:03:45;;;;;;;2.33;0.90;;;;;;;;;;5030307;28;20415;-80
2022/04/17 02:06:10;;;;;;;1.75;0.80;;;;;;;;;;5029947;28;20421;-80
2022/04/17 02:08:36;;;;;;;1.42;0.70;;;;;;;;;;5030050;28;20046;-80
2022/04/17 02:11:02;;;;;;;2.20;0.82;;;;;;;;;;5046235;28;20116;-80
2022/04/17 02:13:28;;;;;;;1.70;0.80;;;;;;;;;;5030001;28;20105;-80
2022/04/17 02:15:53;;;;;;;1.35;0.63;;;;;;;;;;5013551;28;20084;-80
2022/04/17 02:18:22;;;;;;;2.15;0.88;;;;;;;;;;5029846;28;20129;-80
2022/04/17 02:20:48;;;;;;;1.65;0.85;;;;;;;;;;5013430;28;20042;-80
2022/04/17 02:23:14;;;;;;;1.27;0.60;;;;;;;;;;5013340;28;20472;-80
2022/04/17 02:25:40;;;;;;;1.08;0.60;;;;;;;;;;5029172;28;20053;-80
2022/04/17 02:28:05;;;;;;;1.40;0.70;;;;;;;;;;5029916;28;20045;-80
2022/04/17 02:30:31;;;;;;;2.83;1.02;;;;;;;;;;5046209;28;20117;-80
2022/04/17 02:32:56;;;;;;;1.05;0.57;;;;;;;;;;5012772;28;20037;-81
2022/04/17 02:35:22;;;;;;;1.77;0.70;;;;;;;;;;5013282;28;20062;-80
2022/04/17 02:37:47;;;;;;;1.60;0.60;;;;;;;;;;5029617;28;20083;-80
2022/04/17 02:40:13;;;;;;;2.50;0.95;;;;;;;;;;5012875;28;20084;-80
2022/04/17 02:42:38;;;;;;;1.77;0.80;;;;;;;;;;4996747;28;20107;-80
2022/04/17 02:45:04;;;;;;;2.22;0.70;;;;;;;;;;4980517;28;20536;-81
2022/04/17 02:47:45;;;;;;;1.65;0.80;;;;;;;;;;4980257;28;20462;-80
2022/04/17 02:50:12;;;;;;;1.58;0.60;;;;;;;;;;4984557;28;20084;-80
2022/04/17 02:52:37;;;;;;;2.63;0.80;;;;;;;;;;4996881;28;20041;-80
2022/04/17 02:55:03;;;;;;;1.48;0.60;;;;;;;;;;4979848;28;20050;-80
2022/04/17 02:57:30;;;;;;;1.48;0.50;;;;;;;;;;4980341;28;20092;-80
2022/04/17 02:59:56;;;;;;;2.17;0.80;;;;;;;;;;4996303;28;20066;-80
2022/04/17 03:07:49;;;;;;;1.65;0.90;;;;;;;;;;5026611;28;20057;-80
2022/04/17 03:10:15;;;;;;;1.40;0.63;;;;;;;;;;5028730;28;20034;-80
2022/04/17 03:12:40;;;;;;;1.20;0.85;;;;;;;;;;5012500;28;20049;-80
2022/04/17 03:15:06;;;;;;;1.27;0.60;;;;;;;;;;5028744;28;20444;-80
2022/04/17 03:17:32;;;;;;;1.33;0.70;;;;;;;;;;5029032;28;20515;-80
2022/04/17 03:19:57;;;;;;;1.80;0.60;;;;;;;;;;5028468;28;20034;-80
2022/04/17 03:22:23;;;;;;;1.63;0.85;;;;;;;;;;5028692;28;20038;-80
2022/04/17 03:24:49;;;;;;;1.23;0.60;;;;;;;;;;5028014;28;20030;-80
2022/04/17 03:27:14;;;;;;;1.60;0.60;;;;;;;;;;5028588;28;20045;-81
2022/04/17 03:29:39;;;;;;;1.83;0.90;;;;;;;;;;5028583;28;20036;-81
2022/04/17 03:32:05;;;;;;;1.35;0.60;;;;;;;;;;5011766;28;20054;-80
2022/04/17 03:34:31;;;;;;;1.85;0.82;;;;;;;;;;5011887;28;20025;-80
2022/04/17 03:36:58;;;;;;;1.88;0.80;;;;;;;;;;5011834;28;20042;-80
2022/04/17 03:39:24;;;;;;;1.75;0.85;;;;;;;;;;5024985;28;20042;-80
2022/04/17 03:41:50;;;;;;;1.15;0.60;;;;;;;;;;5008688;28;20046;-80
2022/04/17 03:44:15;;;;;;;2.10;0.77;;;;;;;;;;4992412;28;20397;-80
2022/04/17 03:46:41;;;;;;;1.73;0.70;;;;;;;;;;4992017;28;20493;-80
2022/04/17 03:49:07;;;;;;;1.50;0.80;;;;;;;;;;4991870;28;20030;-80
2022/04/17 03:51:32;;;;;;;1.00;0.55;;;;;;;;;;4992272;28;20046;-81
2022/04/17 03:53:58;;;;;;;2.00;0.65;;;;;;;;;;4991730;28;20506;-80
2022/04/17 03:56:23;;;;;;;1.17;0.60;;;;;;;;;;4992388;28;20117;-80
2022/04/17 03:58:49;;;;;;;1.98;0.70;;;;;;;;;;4992114;28;20509;-80
2022/04/17 04:01:14;;;;;;;1.63;0.75;;;;;;;;;;4994025;28;20046;-80
2022/04/17 04:03:40;;;;;;;1.38;0.70;;;;;;;;;;5027380;28;20045;-80
2022/04/17 04:06:05;;;;;;;2.15;0.75;;;;;;;;;;5011446;28;20494;-80
2022/04/17 04:08:31;;;;;;;1.33;0.70;;;;;;;;;;5011256;28;20101;-80
2022/04/17 04:10:56;;;;;;;1.33;0.77;;;;;;;;;;5026552;28;20050;-80
2022/04/17 04:13:21;;;;;;;1.75;0.70;;;;;;;;;;5011311;28;20048;-80
2022/04/17 04:15:47;;;;;;;1.48;0.60;;;;;;;;;;5027625;28;20041;-80
2022/04/17 04:18:12;;;;;;;1.55;0.68;;;;;;;;;;5027841;28;20045;-80
2022/04/17 04:20:38;;;;;;;1.42;0.55;;;;;;;;;;5027453;28;20050;-80
2022/04/17 04:23:03;;;;;;;1.55;0.70;;;;;;;;;;5027668;28;20459;-80
2022/04/17 04:25:29;;;;;;;1.83;0.70;;;;;;;;;;5027298;28;20049;-80
2022/04/17 04:30:38;;;;;;;1.58;0.73;;;;;;;;;;5025243;28;20030;-80
2022/04/17 04:33:04;;;;;;;1.90;0.80;;;;;;;;;;5026913;28;20463;-80
2022/04/17 04:35:29;;;;;;;2.45;1.08;;;;;;;;;;5027077;28;20504;-80
2022/04/17 04:37:56;;;;;;;1.70;0.73;;;;;;;;;;5027621;28;20144;-80
2022/04/17 04:40:21;;;;;;;2.00;0.82;;;;;;;;;;5011006;28;20551;-80
2022/04/17 04:42:47;;;;;;;1.25;0.70;;;;;;;;;;4994576;28;20044;-80
2022/04/17 04:47:56;;;;;;;1.30;0.80;;;;;;;;;;4999038;28;20448;-80
2022/04/17 04:50:22;;;;;;;1.17;0.60;;;;;;;;;;4993966;28;20358;-80
2022/04/17 04:52:47;;;;;;;1.42;0.70;;;;;;;;;;4994291;28;20041;-79
2022/04/17 04:55:12;;;;;;;2.65;0.77;;;;;;;;;;4978215;28;20038;-79
2022/04/17 04:57:38;;;;;;;0.75;0.43;;;;;;;;;;5010839;28;20033;-79
2022/04/17 05:00:05;;;;;;;1.42;0.73;;;;;;;;;;4978399;28;20041;-79
2022/04/17 05:02:30;;;;;;;1.90;1.10;;;;;;;;;;4993751;28;20038;-79
2022/04/17 05:04:55;;;;;;;2.17;0.70;;;;;;;;;;5026746;28;20026;-80
2022/04/17 05:07:21;;;;;;;1.77;0.70;;;;;;;;;;5026961;28;20443;-80
2022/04/17 05:09:46;;;;;;;2.05;1.00;;;;;;;;;;5027049;28;20096;-79
2022/04/17 05:12:11;;;;;;;1.27;0.47;;;;;;;;;;5027009;28;20092;-80
2022/04/17 05:14:41;;;;;;;1.75;0.75;;;;;;;;;;5027013;28;20048;-80
2022/04/17 05:17:06;;;;;;;2.22;1.15;;;;;;;;;;5025787;28;20488;-80
2022/04/17 05:19:32;;;;;;;3.67;1.10;;;;;;;;;;5010498;28;20112;-82
2022/04/17 05:21:58;;;;;;;5.35;1.52;;;;;;;;;;5028737;28;20048;-82
2022/04/17 05:24:24;;;;;;;1.98;1.00;;;;;;;;;;4997778;28;20053;-81
2022/04/17 05:26:50;;;;;;;6.22;1.38;;;;;;;;;;5014252;28;20080;-81
2022/04/17 05:29:15;;;;;;;3.42;1.00;;;;;;;;;;5030972;28;20476;-81
2022/04/17 05:31:40;;;;;;;7.65;1.38;;;;;;;;;;5030550;28;20088;-80
2022/04/17 05:34:06;;;;;;;4.55;1.30;;;;;;;;;;5013679;28;20071;-80
2022/04/17 05:36:31;;;;;;;6.70;1.27;;;;;;;;;;5014195;28;20408;-80
2022/04/17 05:38:57;;;;;;;4.72;1.10;;;;;;;;;;4997731;28;20042;-79
2022/04/17 05:41:29;;;;;;;3.80;1.30;;;;;;;;;;4998146;28;20053;-77
2022/04/17 05:43:56;;;;;;;9.48;1.48;;;;;;;;;;5014203;28;20080;-77
2022/04/17 05:46:21;;;;;;;2.90;1.10;;;;;;;;;;4981569;28;20121;-77
2022/04/17 05:48:47;;;;;;;3.63;1.75;;;;;;;;;;4997166;28;20121;-77
2022/04/17 05:51:12;;;;;;;5.28;1.83;;;;;;;;;;4997978;28;20050;-78
2022/04/17 05:53:38;;;;;;;6.50;1.80;;;;;;;;;;4997526;28;20057;-78
2022/04/17 05:56:04;;;;;;;5.15;2.03;;;;;;;;;;4997345;28;20037;-77
2022/04/17 05:58:29;;;;;;;3.42;2.08;;;;;;;;;;5013992;28;20116;-77
2022/04/17 06:00:55;;;;;;;2.83;2.10;;;;;;;;;;4997387;28;20121;-77
2022/04/17 06:03:21;;;;;;;4.22;1.58;;;;;;;;;;4996914;28;20034;-77
2022/04/17 06:05:47;;;;;;;3.45;1.08;;;;;;;;;;5030259;28;20044;-78
2022/04/17 06:08:12;;;;;;;5.25;1.60;;;;;;;;;;5029847;28;20130;-78
2022/04/17 06:10:38;;;;;;;3.63;1.40;;;;;;;;;;5029911;28;20046;-78
2022/04/17 06:13:03;;;;;;;4.45;1.48;;;;;;;;;;5029947;28;20171;-78
2022/04/17 06:15:28;;;;;;;2.70;1.25;;;;;;;;;;5029773;28;20034;-78
2022/04/17 06:17:54;;;;;;;3.22;1.33;;;;;;;;;;5013238;28;20054;-78
2022/04/17 06:20:19;;;;;;;5.70;1.40;;;;;;;;;;5030136;28;20038;-77
2022/04/17 06:22:45;;;;;;;2.38;1.17;;;;;;;;;;5029994;28;20168;-78
2022/04/17 06:25:12;;;;;;;2.47;1.27;;;;;;;;;;5029997;28;20041;-78
2022/04/17 06:27:47;;;;;;;4.55;1.30;;;;;;;;;;5013603;28;20034;-78
2022/04/17 06:30:18;;;;;;;3.42;1.33;;;;;;;;;;5029979;28;20488;-77
2022/04/17 06:32:43;;;;;;;2.85;1.33;;;;;;;;;;5002428;28;20030;-78
2022/04/17 06:35:10;;;;;;;4.05;1.42;;;;;;;;;;5028418;28;20496;-78
2022/04/17 06:37:54;;;;;;;2.35;1.00;;;;;;;;;;5029452;28;20046;-78
2022/04/17 06:40:27;;;;;;;2.67;1.02;;;;;;;;;;5025964;28;20116;-78
2022/04/17 06:42:55;;;;;;;3.47;1.10;;;;;;;;;;4977587;28;20039;-77
2022/04/17 06:45:20;;;;;;;1.77;0.80;;;;;;;;;;4977569;28;20409;-80
2022/04/17 06:47:46;;;;;;;2.78;0.90;;;;;;;;;;5008968;28;20085;-81
2022/04/17 06:50:11;;;;;;;2.25;0.90;;;;;;;;;;5009305;28;20042;-80
2022/04/17 06:52:37;;;;;;;3.50;0.90;;;;;;;;;;5009388;28;20412;-81
2022/04/17 06:55:05;;;;;;;4.03;1.10;;;;;;;;;;4976700;28;20030;-81
2022/04/17 06:57:33;;;;;;;2.47;0.90;;;;;;;;;;5009831;28;20070;-81
2022/04/17 07:00:09;;;;;;;4.20;0.90;;;;;;;;;;4976735;28;20117;-82
2022/04/17 07:02:38;;;;;;;2.25;0.93;;;;;;;;;;5006260;28;20041;-81
2022/04/17 07:05:03;;;;;;;2.05;0.77;;;;;;;;;;5012509;28;20026;-82
2022/04/17 07:07:29;;;;;;;2.92;0.82;;;;;;;;;;4980434;28;20381;-82
2022/04/17 07:09:54;;;;;;;2.70;1.00;;;;;;;;;;4996291;28;20041;-81
2022/04/17 07:12:21;;;;;;;3.13;0.88;;;;;;;;;;4980018;28;20060;-81
2022/04/17 07:14:47;;;;;;;2.85;0.70;;;;;;;;;;5012085;28;20042;-81
2022/04/17 07:17:13;;;;;;;3.80;0.73;;;;;;;;;;5012019;28;20404;-82
2022/04/17 07:19:39;;;;;;;1.63;0.52;;;;;;;;;;4980015;28;20117;-83
2022/04/17 07:22:04;;;;;;;1.85;0.90;;;;;;;;;;4995723;28;20125;-82
2022/04/17 07:24:29;;;;;;;4.47;1.00;;;;;;;;;;4995641;28;20069;-82
2022/04/17 07:26:56;;;;;;;4.40;1.08;;;;;;;;;;5028593;28;20416;-82
2022/04/17 07:29:24;;;;;;;2.63;0.90;;;;;;;;;;5011924;28;20076;-83
2022/04/17 07:31:50;;;;;;;1.75;0.70;;;;;;;;;;5011967;28;20125;-83
2022/04/17 07:34:22;;;;;;;2.42;0.80;;;;;;;;;;5004103;28;20045;-81
2022/04/17 07:36:52;;;;;;;1.23;0.55;;;;;;;;;;5029127;28;20048;-83
2022/04/17 07:39:18;;;;;;;1.50;0.70;;;;;;;;;;5012026;28;20029;-82
2022/04/17 07:41:45;;;;;;;2.45;0.80;;;;;;;;;;4979740;28;20040;-83
2022/04/17 07:44:11;;;;;;;2.15;0.73;;;;;;;;;;4979176;28;20030;-82
2022/04/17 07:46:40;;;;;;;2.88;0.93;;;;;;;;;;4995167;28;20033;-81
2022/04/17 07:49:06;;;;;;;2.70;0.82;;;;;;;;;;4979220;28;20041;-83
2022/04/17 07:51:31;;;;;;;1.52;0.60;;;;;;;;;;4979476;28;20034;-81
2022/04/17 07:53:57;;;;;;;1.92;0.50;;;;;;;;;;4979262;28;20527;-81
2022/04/17 07:56:23;;;;;;;2.03;0.70;;;;;;;;;;4978986;28;20038;-81
2022/04/17 07:58:49;;;;;;;1.50;0.50;;;;;;;;;;4978790;28;20117;-81
2022/04/17 08:01:16;;;;;;;3.05;0.80;;;;;;;;;;4979078;28;20136;-81
2022/04/17 08:06:07;;;;;;;3.10;0.70;;;;;;;;;;5019388;28;20146;-81
2022/04/17 08:08:42;;;;;;;3.05;0.85;;;;;;;;;;4977611;28;20509;-81
2022/04/17 08:11:11;;;;;;;4.57;0.60;;;;;;;;;;5006871;28;20037;-81
2022/04/17 08:13:37;;;;;;;4.28;1.05;;;;;;;;;;4978308;28;20041;-80
2022/04/17 08:16:10;;;;;;;3.63;0.70;;;;;;;;;;4975505;28;20378;-80
2022/04/17 08:18:36;;;;;;;5.38;1.10;;;;;;;;;;4977399;28;20065;-80
2022/04/17 08:21:03;;;;;;;3.67;1.02;;;;;;;;;;4975713;28;20038;-80
2022/04/17 08:23:28;;;;;;;3.72;0.95;;;;;;;;;;4978157;28;20025;-80
2022/04/17 08:25:54;;;;;;;3.88;0.90;;;;;;;;;;4993134;28;20034;-80
2022/04/17 08:28:20;;;;;;;4.03;1.40;;;;;;;;;;4992814;28;20038;-80
2022/04/17 08:30:45;;;;;;;3.22;0.77;;;;;;;;;;4994101;28;20033;-80
2022/04/17 08:33:14;;;;;;;2.53;0.60;;;;;;;;;;5009178;28;20042;-80
2022/04/17 08:35:41;;;;;;;2.38;0.55;;;;;;;;;;4977423;28;20120;-81
2022/04/17 08:38:07;;;;;;;2.88;0.73;;;;;;;;;;4993955;28;20041;-80
2022/04/17 08:40:34;;;;;;;2.70;0.60;;;;;;;;;;5010383;28;20440;-80
2022/04/17 08:43:00;;;;;;;2.45;0.50;;;;;;;;;;4993660;28;20095;-80
2022/04/17 08:45:27;;;;;;;2.05;0.63;;;;;;;;;;4994185;28;20038;-80
2022/04/17 08:47:59;;;;;;;3.42;0.73;;;;;;;;;;4992685;28;20041;-82
2022/04/17 08:50:28;;;;;;;6.35;0.65;;;;;;;;;;4986777;28;20061;-80
2022/04/17 08:52:54;;;;;;;1.63;0.50;;;;;;;;;;5007422;28;20039;-81
2022/04/17 08:55:19;;;;;;;1.45;0.60;;;;;;;;;;4974907;28;20107;-81
2022/04/17 08:57:45;;;;;;;2.65;0.73;;;;;;;;;;5006934;28;20042;-81
2022/04/17 09:00:13;;;;;;;2.35;0.60;;;;;;;;;;4990523;28;20049;-81
2022/04/17 09:02:38;;;;;;;4.78;0.80;;;;;;;;;;5009595;28;20027;-81
2022/04/17 09:05:08;;;;;;;2.97;0.60;;;;;;;;;;5026992;28;20046;-81
2022/04/17 09:07:50;;;;;;;0.90;0.40;;;;;;;;;;5009896;28;20059;-80
2022/04/17 09:10:33;;;;;;;3.08;0.55;;;;;;;;;;5009323;28;20128;-80
2022/04/17 09:13:00;;;;;;;2.30;0.80;;;;;;;;;;5010012;28;20052;-79
2022/04/17 09:15:29;;;;;;;1.65;0.70;;;;;;;;;;5010416;28;20100;-77
2022/04/17 09:17:55;;;;;;;2.53;0.65;;;;;;;;;;5026185;28;20154;-78
2022/04/17 09:20:24;;;;;;;1.55;0.55;;;;;;;;;;5010516;28;20042;-77
2022/04/17 09:22:51;;;;;;;2.03;0.50;;;;;;;;;;5026653;28;20034;-76
2022/04/17 09:25:16;;;;;;;2.72;0.60;;;;;;;;;;5027050;28;20038;-78
2022/04/17 09:28:07;;;;;;;5.53;0.60;;;;;;;;;;5027380;28;20045;-78
2022/04/17 09:30:34;;;;;;;2.10;0.75;;;;;;;;;;5009713;28;20041;-78
2022/04/17 09:33:09;;;;;;;2.60;0.85;;;;;;;;;;5009705;28;20077;-76
2022/04/17 09:35:35;;;;;;;3.80;0.63;;;;;;;;;;5010239;28;20033;-77
2022/04/17 09:38:03;;;;;;;1.50;0.60;;;;;;;;;;5026861;28;20045;-76
2022/04/17 09:40:31;;;;;;;3.15;0.50;;;;;;;;;;5009961;28;20531;-76
2022/04/17 09:43:16;;;;;;;2.35;0.50;;;;;;;;;;4978569;28;20045;-76
2022/04/17 09:46:04;;;;;;;2.17;0.68;;;;;;;;;;4994177;28;20058;-76
2022/04/17 09:48:40;;;;;;;3.25;0.57;;;;;;;;;;5010197;28;20046;-76
2022/04/17 09:51:19;;;;;;;2.97;0.68;;;;;;;;;;4994185;28;20042;-76
2022/04/17 09:53:44;;;;;;;4.95;0.50;;;;;;;;;;5010212;28;20085;-76
2022/04/17 09:56:10;;;;;;;3.97;0.70;;;;;;;;;;4993249;28;20046;-77
2022/04/17 09:58:37;;;;;;;3.35;0.88;;;;;;;;;;4993979;28;20034;-77
2022/04/17 10:01:03;;;;;;;4.07;0.60;;;;;;;;;;5010203;28;20030;-77
2022/04/17 10:03:29;;;;;;;3.75;0.63;;;;;;;;;;5026223;28;20049;-78
2022/04/17 10:05:55;;;;;;;4.00;0.63;;;;;;;;;;5009894;28;20026;-78
2022/04/17 10:08:20;;;;;;;3.00;0.60;;;;;;;;;;5026856;28;20064;-78
2022/04/17 10:10:45;;;;;;;1.67;0.80;;;;;;;;;;5029497;28;20508;-78
2022/04/17 10:13:11;;;;;;;3.10;0.50;;;;;;;;;;5030158;28;20048;-78
2022/04/17 10:15:36;;;;;;;3.05;0.70;;;;;;;;;;5029014;28;20049;-78
2022/04/17 10:18:03;;;;;;;2.75;0.63;;;;;;;;;;5029963;28;20044;-79
2022/04/17 10:20:28;;;;;;;1.70;0.80;;;;;;;;;;5012821;28;20500;-78
2022/04/17 10:22:57;;;;;;;1.10;0.40;;;;;;;;;;5013165;28;20049;-78
2022/04/17 10:25:22;;;;;;;13.77;0.90;;;;;;;;;;5028801;28;20034;-78
2022/04/17 10:27:50;;;;;;;2.03;0.40;;;;;;;;;;5029626;28;20037;-78
2022/04/17 10:30:34;;;;;;;1.42;0.60;;;;;;;;;;5029505;28;20038;-78
2022/04/17 10:33:27;;;;;;;1.10;0.45;;;;;;;;;;5011763;28;20073;-78
2022/04/17 10:36:19;;;;;;;2.83;0.70;;;;;;;;;;5014288;28;20048;-78
2022/04/17 10:39:09;;;;;;;1.02;0.50;;;;;;;;;;4999270;28;20145;-78
2022/04/17 10:41:34;;;;;;;1.10;0.50;;;;;;;;;;5014229;28;20492;-78
2022/04/17 10:44:03;;;;;;;1.30;0.40;;;;;;;;;;4980882;28;20108;-78
2022/04/17 10:46:28;;;;;;;1.52;0.50;;;;;;;;;;4980849;28;20508;-78
2022/04/17 10:48:55;;;;;;;2.20;0.50;;;;;;;;;;4996625;28;20037;-78
2022/04/17 10:51:25;;;;;;;2.00;0.60;;;;;;;;;;4980638;28;20201;-78
2022/04/17 10:53:52;;;;;;;0.98;0.50;;;;;;;;;;4996510;28;20401;-78
2022/04/17 10:56:17;;;;;;;1.80;0.52;;;;;;;;;;5012788;28;20555;-78
2022/04/17 10:58:53;;;;;;;1.95;0.77;;;;;;;;;;4980462;28;20116;-78
2022/04/17 11:01:55;;;;;;;2.25;0.50;;;;;;;;;;4996718;28;20147;-78
2022/04/17 11:04:28;;;;;;;0.68;0.40;;;;;;;;;;5012132;28;20046;-78
2022/04/17 11:07:06;;;;;;;1.20;0.50;;;;;;;;;;5028807;28;20519;-78
2022/04/17 11:09:33;;;;;;;1.60;0.65;;;;;;;;;;5012249;28;20034;-78
2022/04/17 11:12:28;;;;;;;1.42;0.55;;;;;;;;;;5028648;28;20044;-78
2022/04/17 11:15:02;;;;;;;1.00;0.30;;;;;;;;;;5012825;28;20122;-78
2022/04/17 11:17:31;;;;;;;2.20;0.40;;;;;;;;;;5028511;28;20125;-79
2022/04/17 11:19:59;;;;;;;1.80;0.47;;;;;;;;;;5028053;28;20062;-78
2022/04/17 11:22:38;;;;;;;1.70;0.50;;;;;;;;;;5028489;28;20030;-78
2022/04/17 11:25:05;;;;;;;1.70;0.57;;;;;;;;;;5028557;28;20044;-79
2022/04/17 11:27:53;;;;;;;0.77;0.30;;;;;;;;;;5045115;28;20496;-78
2022/04/17 11:30:18;;;;;;;1.63;0.55;;;;;;;;;;5028327;28;20124;-78
2022/04/17 11:32:43;;;;;;;2.25;0.50;;;;;;;;;;5012778;28;20164;-78
2022/04/17 11:35:11;;;;;;;1.15;0.43;;;;;;;;;;5045096;28;20049;-78
2022/04/17 11:37:36;;;;;;;1.00;0.30;;;;;;;;;;5012217;28;20042;-78
2022/04/17 11:40:12;;;;;;;1.80;0.50;;;;;;;;;;5024968;28;20045;-78
2022/04/17 11:42:44;;;;;;;1.35;0.50;;;;;;;;;;4992130;28;20493;-78
2022/04/17 11:45:11;;;;;;;2.10;0.90;;;;;;;;;;4976195;28;20042;-78
2022/04/17 11:47:40;;;;;;;1.80;0.40;;;;;;;;;;4992171;28;20065;-78
2022/04/17 11:50:10;;;;;;;1.75;0.82;;;;;;;;;;5008483;28;20031;-78
2022/04/17 11:52:36;;;;;;;0.77;0.30;;;;;;;;;;4992503;28;20045;-77
2022/04/17 11:55:01;;;;;;;1.23;0.30;;;;;;;;;;5008390;28;20035;-78
2022/04/17 11:57:27;;;;;;;1.20;0.38;;;;;;;;;;4992225;28;20412;-78
2022/04/17 11:59:56;;;;;;;0.45;0.30;;;;;;;;;;4992076;28;20489;-77
2022/04/17 12:02:25;;;;;;;1.75;0.57;;;;;;;;;;5016068;28;20038;-78
2022/04/17 12:04:55;;;;;;;0.70;0.30;;;;;;;;;;5008219;28;20038;-78
2022/04/17 12:07:24;;;;;;;1.15;0.45;;;;;;;;;;5007925;28;20100;-78
2022/04/17 12:09:50;;;;;;;1.20;0.40;;;;;;;;;;5008009;28;20528;-78
2022/04/17 12:12:17;;;;;;;3.47;0.85;;;;;;;;;;5008056;28;20043;-78
2022/04/17 12:14:43;;;;;;;2.60;0.40;;;;;;;;;;5008296;28;20034;-78
2022/04/17 12:17:08;;;;;;;2.15;0.40;;;;;;;;;;5007760;28;20448;-78
2022/04/17 12:19:33;;;;;;;1.58;0.35;;;;;;;;;;5007843;28;20038;-78
2022/04/17 12:21:59;;;;;;;1.35;0.30;;;;;;;;;;5007963;28;20065;-78
2022/04/17 12:24:27;;;;;;;1.20;0.38;;;;;;;;;;5007744;28;20514;-77
2022/04/17 12:26:53;;;;;;;2.00;0.52;;;;;;;;;;5007689;28;20038;-78
2022/04/17 12:29:19;;;;;;;1.67;0.40;;;;;;;;;;5024249;28;20105;-78
2022/04/17 12:31:44;;;;;;;1.90;0.40;;;;;;;;;;5006866;28;20074;-77
2022/04/17 12:34:15;;;;;;;1.13;0.50;;;;;;;;;;5007396;28;20409;-78
2022/04/17 12:36:42;;;;;;;0.88;0.40;;;;;;;;;;4992047;28;20042;-79
2022/04/17 12:39:08;;;;;;;0.98;0.63;;;;;;;;;;4992422;28;20038;-78
2022/04/17 12:41:41;;;;;;;1.52;0.40;;;;;;;;;;5007808;28;20042;-78
2022/04/17 12:44:06;;;;;;;0.90;0.30;;;;;;;;;;4991376;28;20392;-79
2022/04/17 12:46:32;;;;;;;1.15;0.47;;;;;;;;;;5023852;28;20038;-78
2022/04/17 12:49:06;;;;;;;1.15;0.57;;;;;;;;;;5023660;28;20101;-78
2022/04/17 12:51:33;;;;;;;0.95;0.40;;;;;;;;;;5023406;28;20077;-78
2022/04/17 12:53:59;;;;;;;0.63;0.35;;;;;;;;;;5007544;28;20089;-78
2022/04/17 12:56:25;;;;;;;0.40;0.20;;;;;;;;;;5007867;28;20523;-78
2022/04/17 12:58:55;;;;;;;1.25;0.40;;;;;;;;;;5007623;28;20113;-78
2022/04/17 13:01:28;;;;;;;0.60;0.38;;;;;;;;;;4995427;28;20096;-78
2022/04/17 13:04:21;;;;;;;1.05;0.40;;;;;;;;;;5026219;28;20500;-78
2022/04/17 13:06:48;;;;;;;0.60;0.30;;;;;;;;;;5042341;28;20136;-78
2022/04/17 13:09:18;;;;;;;3.58;0.45;;;;;;;;;;5027154;28;20041;-78
2022/04/17 13:11:46;;;;;;;1.10;0.40;;;;;;;;;;5010663;28;20038;-78
2022/04/17 13:14:11;;;;;;;0.90;0.35;;;;;;;;;;5010743;28;20030;-78
2022/04/17 13:17:07;;;;;;;1.00;0.45;;;;;;;;;;5026880;28;20034;-78
2022/04/17 13:19:33;;;;;;;1.17;0.52;;;;;;;;;;5010325;28;20057;-78
2022/04/17 13:21:58;;;;;;;0.85;0.28;;;;;;;;;;5026813;28;20069;-78
2022/04/17 13:24:28;;;;;;;0.80;0.38;;;;;;;;;;5026792;28;20523;-79
2022/04/17 13:26:54;;;;;;;1.15;0.47;;;;;;;;;;5026639;28;20109;-78
2022/04/17 13:29:20;;;;;;;0.85;0.40;;;;;;;;;;5010279;28;20131;-78
2022/04/17 13:31:45;;;;;;;1.92;0.60;;;;;;;;;;5009925;28;20451;-78
2022/04/17 13:34:11;;;;;;;1.17;0.38;;;;;;;;;;5007256;28;20070;-78
2022/04/17 13:36:37;;;;;;;1.80;0.45;;;;;;;;;;4974780;28;20046;-78
2022/04/17 13:39:02;;;;;;;1.33;0.32;;;;;;;;;;4978135;28;20060;-78
2022/04/17 13:41:28;;;;;;;0.90;0.43;;;;;;;;;;4994098;28;20395;-78
2022/04/17 13:43:54;;;;;;;0.75;0.40;;;;;;;;;;4981271;28;20492;-78
2022/04/17 13:46:19;;;;;;;0.70;0.35;;;;;;;;;;4997680;28;20049;-78
2022/04/17 13:48:45;;;;;;;1.08;0.43;;;;;;;;;;4997600;28;20603;-78
2022/04/17 13:51:10;;;;;;;1.73;0.25;;;;;;;;;;4981551;28;20077;-78
2022/04/17 13:53:36;;;;;;;0.75;0.30;;;;;;;;;;4981737;28;20049;-78
2022/04/17 13:56:01;;;;;;;0.82;0.40;;;;;;;;;;4981151;28;20053;-78
2022/04/17 13:58:27;;;;;;;1.23;0.40;;;;;;;;;;4997866;28;20507;-78
2022/04/17 14:00:56;;;;;;;1.05;0.47;;;;;;;;;;5013548;28;20117;-78
2022/04/17 14:03:22;;;;;;;0.73;0.50;;;;;;;;;;4996974;28;20511;-78
2022/04/17 14:05:48;;;;;;;8.20;0.98;;;;;;;;;;5028679;28;20042;-79
2022/04/17 14:08:13;;;;;;;6.45;0.80;;;;;;;;;;5027507;28;20550;-79
2022/04/17 14:10:39;;;;;;;2.50;0.28;;;;;;;;;;5011490;28;20477;-78
2022/04/17 14:13:04;;;;;;;13.88;0.90;;;;;;;;;;5029851;28;20042;-80
2022/04/17 14:15:30;;;;;;;7.43;0.85;;;;;;;;;;5013330;28;20416;-79
2022/04/17 14:17:55;;;;;;;10.80;1.70;;;;;;;;;;5013313;28;20037;-80
2022/04/17 14:20:21;;;;;;;6.65;0.85;;;;;;;;;;5029662;28;20489;-80
2022/04/17 14:22:46;;;;;;;1.73;0.38;;;;;;;;;;5029881;28;20064;-80
2022/04/17 14:25:12;;;;;;;3.65;0.65;;;;;;;;;;5029500;28;20030;-80
2022/04/17 14:27:37;;;;;;;3.17;0.60;;;;;;;;;;5029702;28;20121;-79
2022/04/17 14:30:03;;;;;;;1.83;0.35;;;;;;;;;;5029230;28;20034;-79
2022/04/17 14:32:28;;;;;;;2.80;0.63;;;;;;;;;;5013041;28;20048;-79
2022/04/17 14:34:54;;;;;;;3.22;0.57;;;;;;;;;;5029759;28;20060;-80
2022/04/17 14:37:19;;;;;;;4.05;0.35;;;;;;;;;;5013498;28;20049;-79
2022/04/17 14:39:45;;;;;;;1.25;0.45;;;;;;;;;;5013048;28;20042;-79
2022/04/17 14:42:11;;;;;;;1.65;0.30;;;;;;;;;;5012773;28;20049;-79
2022/04/17 14:44:38;;;;;;;1.40;0.40;;;;;;;;;;4996277;28;20048;-79
2022/04/17 14:47:04;;;;;;;1.80;0.43;;;;;;;;;;5013127;28;20611;-80
2022/04/17 14:49:29;;;;;;;1.30;0.35;;;;;;;;;;5012803;28;20050;-79
2022/04/17 14:51:55;;;;;;;1.00;0.20;;;;;;;;;;5029465;28;20057;-79
2022/04/17 14:54:20;;;;;;;1.85;0.73;;;;;;;;;;5012047;28;20099;-79
2022/04/17 14:56:46;;;;;;;1.70;0.40;;;;;;;;;;5012712;28;20087;-78
2022/04/17 14:59:11;;;;;;;0.43;0.30;;;;;;;;;;5012941;28;20447;-78
2022/04/17 15:01:37;;;;;;;1.35;0.30;;;;;;;;;;5012360;28;20029;-78